Time;durP1;ratioP1;P1;durP2;ratioP2;P2;SDS_P1;SDS_P2;PMS_P1;PMS_P2;Temp;Humidity;BMP_temperature;BMP_pressure;BME280_temperature;BME280_humidity;BME280_pressure;Samples;Min_cycle;Max_cycle;Signal;HPM_P1;HPM_P2
2021/08/19 00:00:03;;;;;;;5.13;2.80;;;;;;;;;;4989705;28;20049;-50
2021/08/19 00:02:30;;;;;;;5.82;3.10;;;;;;;;;;4992452;28;20046;-53
2021/08/19 00:04:57;;;;;;;6.47;2.90;;;;;;;;;;4992217;28;20388;-49
2021/08/19 00:07:24;;;;;;;4.18;2.78;;;;;;;;;;4976005;28;20130;-51
2021/08/19 00:09:51;;;;;;;6.47;3.10;;;;;;;;;;4987919;28;20125;-47
2021/08/19 00:12:18;;;;;;;4.78;3.10;;;;;;;;;;4992421;28;20065;-51
2021/08/19 00:14:45;;;;;;;5.63;2.85;;;;;;;;;;4991757;28;20042;-48
2021/08/19 00:17:12;;;;;;;5.13;2.95;;;;;;;;;;4986994;28;20042;-48
2021/08/19 00:19:38;;;;;;;4.70;2.95;;;;;;;;;;4985412;28;20126;-51
2021/08/19 00:22:05;;;;;;;4.55;3.03;;;;;;;;;;4991924;28;20046;-48
2021/08/19 00:24:32;;;;;;;4.38;2.60;;;;;;;;;;4977336;28;20409;-49
2021/08/19 00:27:02;;;;;;;7.65;3.22;;;;;;;;;;4983663;28;20129;-47
2021/08/19 00:29:29;;;;;;;5.03;3.05;;;;;;;;;;4990914;28;20042;-53
2021/08/19 00:31:55;;;;;;;4.05;2.67;;;;;;;;;;4984026;28;20049;-51
2021/08/19 00:34:22;;;;;;;6.28;2.78;;;;;;;;;;4972050;28;20049;-49
2021/08/19 00:36:50;;;;;;;7.13;3.10;;;;;;;;;;4981149;28;20414;-50
2021/08/19 00:39:18;;;;;;;4.68;2.95;;;;;;;;;;4986072;28;20113;-46
2021/08/19 00:41:44;;;;;;;5.35;3.28;;;;;;;;;;4992277;28;20043;-47
2021/08/19 00:44:12;;;;;;;5.78;3.33;;;;;;;;;;4995537;28;20066;-51
2021/08/19 00:46:39;;;;;;;5.25;3.20;;;;;;;;;;4992436;28;20038;-49
2021/08/19 00:49:09;;;;;;;6.22;3.42;;;;;;;;;;4976670;28;20139;-51
2021/08/19 00:51:49;;;;;;;4.47;2.92;;;;;;;;;;4982470;28;20121;-49
2021/08/19 00:54:16;;;;;;;5.03;3.30;;;;;;;;;;4995123;28;20431;-49
2021/08/19 00:56:43;;;;;;;6.03;3.40;;;;;;;;;;4985166;28;20053;-49
2021/08/19 00:59:11;;;;;;;5.60;3.30;;;;;;;;;;4995623;28;20122;-52
2021/08/19 01:01:38;;;;;;;5.45;3.22;;;;;;;;;;4995272;28;20488;-49
2021/08/19 01:04:11;;;;;;;5.88;2.90;;;;;;;;;;4982889;28;20477;-53
2021/08/19 01:06:38;;;;;;;5.82;3.38;;;;;;;;;;4994004;28;20057;-51
2021/08/19 01:09:05;;;;;;;5.45;4.10;;;;;;;;;;4994090;28;20065;-53
2021/08/19 01:11:34;;;;;;;5.85;4.45;;;;;;;;;;4995084;28;20053;-50
2021/08/19 01:14:00;;;;;;;5.45;3.60;;;;;;;;;;4994523;28;20130;-50
2021/08/19 01:16:33;;;;;;;5.75;3.03;;;;;;;;;;4995280;28;20046;-50
2021/08/19 01:19:00;;;;;;;5.65;3.20;;;;;;;;;;4985198;28;20046;-49
2021/08/19 01:21:27;;;;;;;4.75;3.08;;;;;;;;;;4994993;28;20053;-51
2021/08/19 01:23:54;;;;;;;5.40;3.42;;;;;;;;;;4994726;28;20046;-51
2021/08/19 01:26:21;;;;;;;6.18;3.30;;;;;;;;;;4993662;28;20752;-51
2021/08/19 01:28:48;;;;;;;6.63;3.55;;;;;;;;;;4994766;28;20456;-49
2021/08/19 01:31:17;;;;;;;6.13;3.42;;;;;;;;;;4994903;28;20072;-50
2021/08/19 01:33:44;;;;;;;7.32;3.40;;;;;;;;;;4990764;28;20054;-50
2021/08/19 01:36:11;;;;;;;5.78;3.40;;;;;;;;;;4975467;28;20042;-52
2021/08/19 01:38:39;;;;;;;5.57;3.15;;;;;;;;;;4985734;28;20053;-52
2021/08/19 01:41:05;;;;;;;6.93;4.15;;;;;;;;;;4994994;28;20062;-50
2021/08/19 01:43:32;;;;;;;6.00;3.60;;;;;;;;;;4994167;28;20048;-49
2021/08/19 01:46:03;;;;;;;5.70;3.58;;;;;;;;;;4994210;28;20046;-53
2021/08/19 01:48:30;;;;;;;5.43;3.53;;;;;;;;;;4984747;28;20043;-52
2021/08/19 01:50:56;;;;;;;5.80;3.38;;;;;;;;;;4986553;28;20038;-50
2021/08/19 01:53:23;;;;;;;5.90;3.45;;;;;;;;;;4993280;28;20511;-50
2021/08/19 01:55:59;;;;;;;5.75;3.58;;;;;;;;;;4994282;28;20042;-50
2021/08/19 01:58:27;;;;;;;6.53;3.70;;;;;;;;;;4979805;28;20042;-49
2021/08/19 02:00:54;;;;;;;5.15;3.42;;;;;;;;;;4994615;28;20054;-51
2021/08/19 02:03:21;;;;;;;7.43;4.07;;;;;;;;;;4993009;28;20042;-52
2021/08/19 02:05:48;;;;;;;7.25;3.75;;;;;;;;;;4979382;28;20050;-51
2021/08/19 02:08:16;;;;;;;6.68;3.80;;;;;;;;;;4976793;28;20042;-48
2021/08/19 02:10:43;;;;;;;7.43;4.07;;;;;;;;;;4994378;28;20441;-53
2021/08/19 02:13:11;;;;;;;6.80;3.70;;;;;;;;;;4994337;28;20038;-50
2021/08/19 02:15:38;;;;;;;6.78;3.80;;;;;;;;;;4991332;28;20125;-51
2021/08/19 02:18:04;;;;;;;7.85;4.45;;;;;;;;;;4999171;28;20053;-52
2021/08/19 02:20:31;;;;;;;6.72;4.03;;;;;;;;;;4995002;28;20109;-51
2021/08/19 02:22:59;;;;;;;6.15;3.20;;;;;;;;;;4994000;28;20427;-51
2021/08/19 02:25:26;;;;;;;6.55;3.40;;;;;;;;;;4989863;28;20069;-50
2021/08/19 02:27:53;;;;;;;6.18;4.20;;;;;;;;;;4974654;28;20125;-53
2021/08/19 02:30:20;;;;;;;7.40;3.50;;;;;;;;;;4990899;28;20069;-52
2021/08/19 02:32:52;;;;;;;6.63;3.75;;;;;;;;;;4993833;28;20044;-50
2021/08/19 02:35:20;;;;;;;5.50;3.25;;;;;;;;;;4991324;28;20121;-50
2021/08/19 02:37:46;;;;;;;5.93;3.60;;;;;;;;;;4993948;28;20056;-50
2021/08/19 02:40:13;;;;;;;6.53;3.50;;;;;;;;;;4989630;28;20083;-50
2021/08/19 02:42:40;;;;;;;8.88;3.85;;;;;;;;;;4993348;28;20388;-50
2021/08/19 02:45:07;;;;;;;5.88;3.70;;;;;;;;;;4993688;28;20501;-52
2021/08/19 02:47:34;;;;;;;7.65;3.92;;;;;;;;;;4993855;28;20049;-50
2021/08/19 02:50:00;;;;;;;9.02;4.30;;;;;;;;;;4974580;28;20378;-55
2021/08/19 02:52:27;;;;;;;5.32;3.47;;;;;;;;;;4978240;28;20049;-52
2021/08/19 02:54:54;;;;;;;7.95;4.07;;;;;;;;;;4993473;28;20034;-53
2021/08/19 02:57:20;;;;;;;6.30;4.07;;;;;;;;;;4990691;28;20053;-51
2021/08/19 02:59:47;;;;;;;6.25;4.13;;;;;;;;;;4973959;28;20058;-51
2021/08/19 03:02:14;;;;;;;6.88;3.55;;;;;;;;;;4975970;28;20412;-50
2021/08/19 03:04:41;;;;;;;6.18;3.63;;;;;;;;;;4995932;28;20047;-51
2021/08/19 03:07:09;;;;;;;5.65;3.78;;;;;;;;;;4995190;28;20544;-54
2021/08/19 03:09:36;;;;;;;7.50;4.07;;;;;;;;;;4980895;28;20047;-54
2021/08/19 03:12:03;;;;;;;5.82;3.95;;;;;;;;;;4974090;28;20130;-51
2021/08/19 03:14:30;;;;;;;9.73;3.90;;;;;;;;;;4973286;28;20051;-50
2021/08/19 03:16:57;;;;;;;7.03;4.10;;;;;;;;;;4974117;28;20476;-49
2021/08/19 03:19:24;;;;;;;7.10;3.72;;;;;;;;;;4991928;28;20065;-48
2021/08/19 03:21:50;;;;;;;7.95;3.65;;;;;;;;;;4993134;28;20416;-52
2021/08/19 03:24:17;;;;;;;6.43;3.97;;;;;;;;;;4991930;28;20044;-53
2021/08/19 03:26:44;;;;;;;7.72;4.07;;;;;;;;;;4973300;28;20043;-51
2021/08/19 03:29:11;;;;;;;7.10;3.85;;;;;;;;;;4988957;28;20135;-50
2021/08/19 03:31:38;;;;;;;5.47;3.88;;;;;;;;;;4992860;28;20045;-49
2021/08/19 03:34:06;;;;;;;7.38;4.07;;;;;;;;;;4978207;28;20114;-53
2021/08/19 03:36:33;;;;;;;6.88;4.05;;;;;;;;;;4973366;28;20057;-49
2021/08/19 03:38:59;;;;;;;8.73;4.25;;;;;;;;;;4986566;28;20042;-49
2021/08/19 03:41:26;;;;;;;6.78;4.00;;;;;;;;;;4991296;28;20555;-54
2021/08/19 03:43:53;;;;;;;6.65;4.28;;;;;;;;;;4992366;28;20140;-50
2021/08/19 03:46:20;;;;;;;6.40;3.80;;;;;;;;;;4991133;28;20048;-50
2021/08/19 03:48:47;;;;;;;6.47;4.00;;;;;;;;;;4992374;28;20121;-50
2021/08/19 03:51:14;;;;;;;8.18;3.88;;;;;;;;;;4992676;28;20038;-49
2021/08/19 03:53:41;;;;;;;7.85;4.40;;;;;;;;;;4992340;28;20081;-48
2021/08/19 03:56:08;;;;;;;7.28;4.65;;;;;;;;;;4979555;28;20050;-49
2021/08/19 03:58:36;;;;;;;8.25;6.15;;;;;;;;;;4981313;28;20050;-51
2021/08/19 04:01:03;;;;;;;6.72;4.60;;;;;;;;;;4992375;28;20360;-53
2021/08/19 04:03:30;;;;;;;6.22;4.43;;;;;;;;;;4989813;28;20066;-50
2021/08/19 04:05:57;;;;;;;6.78;3.85;;;;;;;;;;4972683;28;20125;-48
2021/08/19 04:08:24;;;;;;;8.95;4.85;;;;;;;;;;4974762;28;20041;-49
2021/08/19 04:10:50;;;;;;;7.22;4.40;;;;;;;;;;4972714;28;20043;-50
2021/08/19 04:13:17;;;;;;;7.47;4.40;;;;;;;;;;4977788;28;20130;-49
2021/08/19 04:15:44;;;;;;;6.75;4.10;;;;;;;;;;4990826;28;20415;-49
2021/08/19 04:18:13;;;;;;;7.78;5.05;;;;;;;;;;4991060;28;20058;-50
2021/08/19 04:20:40;;;;;;;6.38;4.15;;;;;;;;;;4991809;28;20050;-52
2021/08/19 04:23:07;;;;;;;6.97;4.60;;;;;;;;;;4991822;28;20129;-48
2021/08/19 04:25:33;;;;;;;7.38;4.20;;;;;;;;;;4991749;28;20108;-51
2021/08/19 04:28:00;;;;;;;6.72;4.00;;;;;;;;;;4990587;28;20031;-49
2021/08/19 04:30:28;;;;;;;7.38;4.40;;;;;;;;;;4992025;28;20056;-51
2021/08/19 04:32:54;;;;;;;9.00;4.65;;;;;;;;;;4991694;28;20038;-50
2021/08/19 04:35:23;;;;;;;8.65;4.32;;;;;;;;;;4988321;28;20043;-50
2021/08/19 04:37:49;;;;;;;7.97;4.85;;;;;;;;;;4984740;28;20058;-49
2021/08/19 04:40:16;;;;;;;8.90;4.75;;;;;;;;;;4986303;28;20068;-53
2021/08/19 04:42:43;;;;;;;9.65;4.63;;;;;;;;;;4991457;28;20053;-52
2021/08/19 04:45:10;;;;;;;7.53;4.20;;;;;;;;;;4991550;28;20042;-49
2021/08/19 04:47:37;;;;;;;8.68;4.57;;;;;;;;;;4991251;28;20046;-52
2021/08/19 04:50:04;;;;;;;6.88;4.57;;;;;;;;;;4990661;28;20042;-50
2021/08/19 04:52:30;;;;;;;9.38;4.35;;;;;;;;;;4991379;28;20039;-50
2021/08/19 04:54:57;;;;;;;6.75;4.03;;;;;;;;;;4990161;28;20042;-50
2021/08/19 04:57:24;;;;;;;8.52;5.38;;;;;;;;;;4987210;28;20122;-51
2021/08/19 04:59:50;;;;;;;9.50;4.72;;;;;;;;;;4989751;28;20050;-50
2021/08/19 05:02:17;;;;;;;8.48;4.47;;;;;;;;;;4991601;28;20129;-50
2021/08/19 05:04:44;;;;;;;6.82;4.45;;;;;;;;;;4991411;28;20461;-51
2021/08/19 05:07:11;;;;;;;6.13;3.60;;;;;;;;;;4987641;28;20049;-49
2021/08/19 05:09:37;;;;;;;6.80;4.30;;;;;;;;;;4973106;28;20070;-51
2021/08/19 05:12:04;;;;;;;7.93;4.55;;;;;;;;;;4990357;28;20047;-50
2021/08/19 05:14:31;;;;;;;7.03;4.32;;;;;;;;;;4991456;28;20038;-48
2021/08/19 05:16:58;;;;;;;7.60;4.50;;;;;;;;;;4991462;28;20070;-54
2021/08/19 05:19:24;;;;;;;7.22;4.35;;;;;;;;;;4990246;28;20169;-49
2021/08/19 05:21:51;;;;;;;9.00;4.57;;;;;;;;;;4990105;28;20062;-51
2021/08/19 05:24:18;;;;;;;9.02;4.88;;;;;;;;;;4990814;28;20129;-48
2021/08/19 05:26:44;;;;;;;7.80;4.60;;;;;;;;;;4984146;28;20516;-48
2021/08/19 05:29:11;;;;;;;9.52;4.63;;;;;;;;;;4974891;28;20043;-50
2021/08/19 05:31:38;;;;;;;8.95;4.25;;;;;;;;;;4987833;28;20038;-51
2021/08/19 05:34:08;;;;;;;8.35;5.15;;;;;;;;;;5003760;28;20052;-51
2021/08/19 05:36:35;;;;;;;8.38;4.55;;;;;;;;;;4994960;28;20031;-50
2021/08/19 05:39:04;;;;;;;7.80;4.35;;;;;;;;;;4988537;28;20065;-49
2021/08/19 05:41:32;;;;;;;8.25;4.38;;;;;;;;;;5003036;28;20525;-49
2021/08/19 05:44:03;;;;;;;9.15;4.88;;;;;;;;;;5003507;28;20419;-52
2021/08/19 05:46:30;;;;;;;7.45;4.30;;;;;;;;;;4998132;28;20080;-48
2021/08/19 05:48:57;;;;;;;8.55;4.57;;;;;;;;;;4995811;28;20511;-50
2021/08/19 05:51:24;;;;;;;9.70;5.10;;;;;;;;;;5008016;28;20048;-52
2021/08/19 05:53:51;;;;;;;7.53;4.65;;;;;;;;;;4997339;28;20068;-53
2021/08/19 05:56:17;;;;;;;9.77;4.72;;;;;;;;;;4992350;28;20121;-50
2021/08/19 05:58:44;;;;;;;8.32;5.25;;;;;;;;;;4994533;28;20129;-50
2021/08/19 06:01:11;;;;;;;10.15;4.38;;;;;;;;;;5000836;28;20049;-50
2021/08/19 06:03:38;;;;;;;8.85;5.15;;;;;;;;;;5002242;28;20045;-49
2021/08/19 06:06:05;;;;;;;6.72;4.25;;;;;;;;;;4999973;28;20121;-53
2021/08/19 06:08:32;;;;;;;10.18;5.57;;;;;;;;;;4988722;28;20122;-53
2021/08/19 06:10:59;;;;;;;7.88;4.75;;;;;;;;;;4994200;28;20112;-50
2021/08/19 06:13:26;;;;;;;9.85;4.88;;;;;;;;;;4992016;28;20074;-51
2021/08/19 06:15:52;;;;;;;7.88;4.22;;;;;;;;;;4992870;28;20053;-51
2021/08/19 06:18:19;;;;;;;7.47;4.13;;;;;;;;;;4990540;28;20042;-50
2021/08/19 06:20:46;;;;;;;9.38;4.60;;;;;;;;;;4997369;28;20476;-53
2021/08/19 06:23:13;;;;;;;8.40;4.53;;;;;;;;;;4993828;28;20073;-49
2021/08/19 06:25:40;;;;;;;9.63;5.13;;;;;;;;;;4987582;28;20064;-48
2021/08/19 06:28:07;;;;;;;9.43;4.45;;;;;;;;;;4993992;28;20049;-51
2021/08/19 06:30:34;;;;;;;8.18;4.38;;;;;;;;;;4998858;28;20053;-48
2021/08/19 06:33:02;;;;;;;8.43;4.63;;;;;;;;;;4994965;28;20419;-47
2021/08/19 06:35:29;;;;;;;8.32;4.35;;;;;;;;;;4985937;28;20038;-49
2021/08/19 06:37:56;;;;;;;6.15;4.10;;;;;;;;;;5002553;28;20571;-54
2021/08/19 06:40:23;;;;;;;8.05;4.10;;;;;;;;;;4991094;28;20427;-51
2021/08/19 06:42:50;;;;;;;7.72;4.57;;;;;;;;;;4975872;28;20692;-50
2021/08/19 06:45:18;;;;;;;8.35;4.50;;;;;;;;;;4992008;28;20058;-52
2021/08/19 06:47:45;;;;;;;9.27;4.47;;;;;;;;;;4990844;28;20512;-48
2021/08/19 06:50:11;;;;;;;7.80;4.38;;;;;;;;;;4995075;28;20057;-49
2021/08/19 06:52:43;;;;;;;10.15;4.22;;;;;;;;;;4986600;28;20050;-50
2021/08/19 06:55:10;;;;;;;8.70;4.55;;;;;;;;;;4987306;28;20105;-50
2021/08/19 06:57:37;;;;;;;7.28;4.28;;;;;;;;;;4988509;28;20116;-53
2021/08/19 07:00:05;;;;;;;6.82;4.60;;;;;;;;;;4986671;28;20042;-49
2021/08/19 07:02:32;;;;;;;8.70;4.35;;;;;;;;;;4990855;28;20412;-51
2021/08/19 07:04:59;;;;;;;7.85;3.75;;;;;;;;;;4986837;28;20112;-49
2021/08/19 07:07:30;;;;;;;7.28;4.78;;;;;;;;;;4987538;28;20101;-49
2021/08/19 07:09:59;;;;;;;13.45;4.28;;;;;;;;;;4988174;28;20038;-51
2021/08/19 07:12:25;;;;;;;6.75;3.88;;;;;;;;;;4996779;28;20042;-47
2021/08/19 07:14:52;;;;;;;7.93;4.28;;;;;;;;;;5003753;28;20041;-51
2021/08/19 07:17:19;;;;;;;8.27;4.80;;;;;;;;;;4996198;28;20411;-49
2021/08/19 07:19:46;;;;;;;7.55;3.92;;;;;;;;;;4990700;28;20516;-45
2021/08/19 07:22:13;;;;;;;9.80;3.88;;;;;;;;;;4989389;28;20050;-51
2021/08/19 07:24:39;;;;;;;7.90;4.07;;;;;;;;;;4986621;28;20050;-47
2021/08/19 07:27:06;;;;;;;8.02;4.20;;;;;;;;;;4989249;28;20713;-47
2021/08/19 07:29:33;;;;;;;8.20;4.55;;;;;;;;;;4987769;28;20048;-49
2021/08/19 07:32:01;;;;;;;7.40;4.28;;;;;;;;;;4987599;28;20056;-50
2021/08/19 07:34:28;;;;;;;8.13;4.00;;;;;;;;;;4988721;28;20038;-46
2021/08/19 07:36:55;;;;;;;9.05;3.53;;;;;;;;;;4989390;28;20041;-54
2021/08/19 07:39:22;;;;;;;9.25;4.55;;;;;;;;;;4987496;28;20134;-49
2021/08/19 07:41:49;;;;;;;7.38;4.40;;;;;;;;;;4989991;28;20065;-48
2021/08/19 07:44:15;;;;;;;7.95;4.65;;;;;;;;;;4988058;28;20053;-47
2021/08/19 07:46:42;;;;;;;7.95;3.97;;;;;;;;;;4987151;28;20038;-52
2021/08/19 07:49:09;;;;;;;8.38;4.00;;;;;;;;;;4994722;28;20116;-49
2021/08/19 07:51:36;;;;;;;5.10;3.20;;;;;;;;;;4989521;28;20397;-49
2021/08/19 07:54:03;;;;;;;6.15;3.55;;;;;;;;;;4990731;28;20042;-48
2021/08/19 07:56:29;;;;;;;6.20;3.38;;;;;;;;;;4986083;28;20505;-46
2021/08/19 07:58:58;;;;;;;7.53;3.63;;;;;;;;;;4991429;28;20038;-52
2021/08/19 08:01:25;;;;;;;8.00;3.17;;;;;;;;;;4991178;28;20508;-49
2021/08/19 08:03:52;;;;;;;6.22;3.20;;;;;;;;;;4989458;28;20070;-50
2021/08/19 08:06:19;;;;;;;5.25;3.17;;;;;;;;;;4976782;28;20129;-50
2021/08/19 08:08:46;;;;;;;6.40;3.35;;;;;;;;;;4986003;28;20133;-48
2021/08/19 08:11:13;;;;;;;6.32;3.15;;;;;;;;;;4997744;28;20097;-48
2021/08/19 08:13:40;;;;;;;5.78;3.22;;;;;;;;;;4992227;28;20050;-48
2021/08/19 08:16:07;;;;;;;5.25;3.20;;;;;;;;;;5010154;28;20181;-50
2021/08/19 08:18:34;;;;;;;6.05;2.63;;;;;;;;;;4998754;28;20062;-48
2021/08/19 08:21:02;;;;;;;7.45;3.28;;;;;;;;;;4990772;28;20046;-49
2021/08/19 08:23:32;;;;;;;8.43;3.40;;;;;;;;;;4991447;28;20193;-50
2021/08/19 08:26:00;;;;;;;4.88;3.30;;;;;;;;;;4981658;28;20062;-48
2021/08/19 08:28:30;;;;;;;5.60;2.80;;;;;;;;;;4975989;28;20030;-50
2021/08/19 08:31:01;;;;;;;4.82;2.83;;;;;;;;;;4992155;28;20039;-48
2021/08/19 08:33:30;;;;;;;4.05;2.78;;;;;;;;;;4991869;28;20042;-48
2021/08/19 08:35:57;;;;;;;5.63;2.50;;;;;;;;;;4985817;28;20046;-50
2021/08/19 08:38:25;;;;;;;4.30;2.78;;;;;;;;;;4981139;28;20042;-49
2021/08/19 08:40:52;;;;;;;5.22;2.80;;;;;;;;;;4993463;28;20051;-49
2021/08/19 08:43:23;;;;;;;5.25;2.60;;;;;;;;;;4992108;28;20093;-49
2021/08/19 08:45:50;;;;;;;4.30;2.60;;;;;;;;;;4991722;28;20483;-50
2021/08/19 08:48:25;;;;;;;3.78;2.15;;;;;;;;;;4990663;28;20039;-52
2021/08/19 08:50:52;;;;;;;5.55;2.30;;;;;;;;;;4991896;28;20069;-50
2021/08/19 08:53:20;;;;;;;5.68;2.58;;;;;;;;;;4991787;28;20042;-48
2021/08/19 08:55:48;;;;;;;6.30;2.20;;;;;;;;;;4991504;28;20042;-50
2021/08/19 08:58:15;;;;;;;3.33;2.00;;;;;;;;;;4978498;28;20053;-51
2021/08/19 09:00:43;;;;;;;3.58;1.98;;;;;;;;;;4972209;28;20042;-50
2021/08/19 09:03:11;;;;;;;3.38;1.77;;;;;;;;;;4973554;28;20074;-48
2021/08/19 09:05:42;;;;;;;3.00;2.10;;;;;;;;;;4975360;28;20573;-51
2021/08/19 09:08:17;;;;;;;3.92;1.92;;;;;;;;;;4974800;28;20042;-49
2021/08/19 09:10:44;;;;;;;3.45;1.98;;;;;;;;;;4976051;28;20053;-48
2021/08/19 09:13:15;;;;;;;7.32;2.00;;;;;;;;;;4976028;28;20066;-50
2021/08/19 09:15:43;;;;;;;4.05;1.70;;;;;;;;;;4976317;28;20066;-48
2021/08/19 09:18:11;;;;;;;2.92;1.60;;;;;;;;;;4974462;28;20082;-49
2021/08/19 09:20:39;;;;;;;4.03;1.70;;;;;;;;;;4975876;28;20046;-49
2021/08/19 09:23:07;;;;;;;2.70;1.33;;;;;;;;;;4975650;28;20564;-48
2021/08/19 09:25:38;;;;;;;3.42;1.77;;;;;;;;;;4975329;28;20043;-51
2021/08/19 09:28:08;;;;;;;2.80;1.70;;;;;;;;;;4975639;28;20049;-49
2021/08/19 09:30:35;;;;;;;2.22;1.30;;;;;;;;;;4975830;28;20429;-49
2021/08/19 09:33:03;;;;;;;2.33;1.80;;;;;;;;;;4975869;28;20049;-54
2021/08/19 09:35:30;;;;;;;2.85;1.40;;;;;;;;;;4975351;28;20516;-52
2021/08/19 09:37:58;;;;;;;3.13;1.70;;;;;;;;;;4975604;28;20043;-47
2021/08/19 09:40:24;;;;;;;3.72;1.02;;;;;;;;;;4975647;28;20050;-49
2021/08/19 09:42:51;;;;;;;2.00;1.15;;;;;;;;;;4975742;28;20038;-53
2021/08/19 09:45:19;;;;;;;2.95;1.10;;;;;;;;;;4975351;28;20051;-47
2021/08/19 09:47:46;;;;;;;2.17;1.20;;;;;;;;;;4975816;28;20049;-51
2021/08/19 09:50:13;;;;;;;2.13;1.10;;;;;;;;;;4995341;28;20092;-48
2021/08/19 09:52:40;;;;;;;2.28;1.50;;;;;;;;;;4995179;28;20568;-52
2021/08/19 09:55:22;;;;;;;3.13;1.30;;;;;;;;;;4995201;28;20042;-50
2021/08/19 09:57:49;;;;;;;1.67;1.20;;;;;;;;;;4983696;28;20039;-49
2021/08/19 10:00:36;;;;;;;2.30;1.33;;;;;;;;;;4975484;28;20129;-48
2021/08/19 10:03:10;;;;;;;2.00;1.30;;;;;;;;;;4975486;28;20054;-48
2021/08/19 10:05:37;;;;;;;2.85;1.40;;;;;;;;;;4975302;28;20049;-53
2021/08/19 10:08:08;;;;;;;2.70;1.30;;;;;;;;;;4975744;28;20043;-51
2021/08/19 10:10:36;;;;;;;3.00;1.50;;;;;;;;;;4995022;28;20042;-51
2021/08/19 10:13:03;;;;;;;2.42;1.50;;;;;;;;;;4995280;28;20042;-49
2021/08/19 10:15:32;;;;;;;2.60;1.65;;;;;;;;;;4993866;28;20050;-46
2021/08/19 10:17:59;;;;;;;1.70;1.30;;;;;;;;;;4991843;28;20128;-47
2021/08/19 10:20:29;;;;;;;1.80;1.30;;;;;;;;;;4975343;28;20061;-47
2021/08/19 10:22:57;;;;;;;1.92;1.27;;;;;;;;;;4975039;28;20046;-49
2021/08/19 10:25:24;;;;;;;3.72;1.38;;;;;;;;;;4975272;28;20046;-50
2021/08/19 10:28:10;;;;;;;2.72;1.50;;;;;;;;;;4975280;28;20039;-48
2021/08/19 10:30:44;;;;;;;2.72;1.75;;;;;;;;;;4975469;28;20046;-51
2021/08/19 10:33:30;;;;;;;3.13;1.40;;;;;;;;;;4974952;28;20459;-47
2021/08/19 10:35:57;;;;;;;1.95;1.20;;;;;;;;;;4975132;28;20047;-48
2021/08/19 10:38:25;;;;;;;3.33;1.45;;;;;;;;;;4974422;28;20082;-48
2021/08/19 10:41:27;;;;;;;3.03;1.60;;;;;;;;;;4974922;28;20047;-50
2021/08/19 10:44:04;;;;;;;2.15;1.35;;;;;;;;;;4975046;28;20138;-50
2021/08/19 10:46:59;;;;;;;2.45;1.25;;;;;;;;;;4974983;28;20043;-52
2021/08/19 10:49:30;;;;;;;2.33;1.40;;;;;;;;;;4969739;28;20497;-47
2021/08/19 10:52:22;;;;;;;2.03;1.50;;;;;;;;;;4974829;28;20106;-49
2021/08/19 10:54:50;;;;;;;2.87;1.40;;;;;;;;;;4983143;28;20466;-48
2021/08/19 10:57:20;;;;;;;1.88;1.20;;;;;;;;;;4973106;28;20051;-48
2021/08/19 11:00:07;;;;;;;1.88;1.33;;;;;;;;;;4974984;28;20046;-48
2021/08/19 11:02:54;;;;;;;2.15;1.30;;;;;;;;;;4973455;28;20078;-46
2021/08/19 11:05:28;;;;;;;2.83;1.23;;;;;;;;;;4974113;28;20497;-48
2021/08/19 11:07:58;;;;;;;3.17;1.30;;;;;;;;;;4974117;28;20158;-48
2021/08/19 11:10:28;;;;;;;1.77;1.10;;;;;;;;;;4974541;28;20069;-51
2021/08/19 11:13:02;;;;;;;2.72;1.45;;;;;;;;;;4974264;28;20046;-50
2021/08/19 11:15:29;;;;;;;2.00;1.50;;;;;;;;;;4974457;28;20077;-49
2021/08/19 11:17:57;;;;;;;2.40;1.35;;;;;;;;;;4973410;28;20039;-48
2021/08/19 11:20:30;;;;;;;2.85;1.50;;;;;;;;;;4974702;28;20053;-51
2021/08/19 11:22:57;;;;;;;;;;;;;;;;;;4974981;28;20493;-51
2021/08/19 11:25:26;;;;;;;2.45;1.58;;;;;;;;;;4974389;28;19921;-52
2021/08/19 11:27:54;;;;;;;3.40;1.50;;;;;;;;;;4973935;28;20117;-49
2021/08/19 11:30:31;;;;;;;3.55;1.75;;;;;;;;;;4974574;28;20039;-50
2021/08/19 11:33:10;;;;;;;3.50;1.60;;;;;;;;;;4973216;28;20042;-52
2021/08/19 11:35:38;;;;;;;2.90;1.73;;;;;;;;;;4973423;28;20042;-52
2021/08/19 11:38:11;;;;;;;4.68;1.70;;;;;;;;;;4973622;28;20415;-48
2021/08/19 11:40:39;;;;;;;3.15;1.92;;;;;;;;;;4972414;28;20070;-49
2021/08/19 11:43:24;;;;;;;2.42;1.50;;;;;;;;;;4973772;28;20086;-50
2021/08/19 11:46:02;;;;;;;3.72;1.60;;;;;;;;;;4973826;28;20527;-49
2021/08/19 11:48:29;;;;;;;3.13;1.90;;;;;;;;;;4974385;28;20045;-47
2021/08/19 11:51:00;;;;;;;3.60;1.98;;;;;;;;;;4974100;28;20043;-47
2021/08/19 11:53:27;;;;;;;2.60;1.63;;;;;;;;;;4988498;28;20084;-52
2021/08/19 11:55:54;;;;;;;3.80;2.20;;;;;;;;;;4973703;28;20043;-47
2021/08/19 11:58:25;;;;;;;3.13;1.90;;;;;;;;;;4988366;28;20190;-47
2021/08/19 12:01:06;;;;;;;4.07;2.00;;;;;;;;;;4972483;28;20173;-50
2021/08/19 12:03:38;;;;;;;2.47;1.75;;;;;;;;;;4973589;28;20378;-48
2021/08/19 12:06:10;;;;;;;2.58;1.70;;;;;;;;;;4972890;28;20070;-49
2021/08/19 12:08:38;;;;;;;2.95;1.58;;;;;;;;;;4974164;28;20125;-54
2021/08/19 12:11:07;;;;;;;4.18;1.65;;;;;;;;;;4973740;28;20038;-51
2021/08/19 12:13:35;;;;;;;2.92;1.60;;;;;;;;;;4974229;28;20058;-49
2021/08/19 12:16:02;;;;;;;3.65;2.20;;;;;;;;;;4973249;28;20081;-52
2021/08/19 12:18:28;;;;;;;2.97;2.00;;;;;;;;;;4973838;28;20039;-52
2021/08/19 12:21:11;;;;;;;3.63;2.00;;;;;;;;;;4973228;28;20138;-49
2021/08/19 12:23:38;;;;;;;;;;;;;;;;;;4973621;28;20053;-48
2021/08/19 12:26:05;;;;;;;3.55;1.83;;;;;;;;;;4972646;28;19922;-52
2021/08/19 12:28:33;;;;;;;3.45;1.80;;;;;;;;;;4974061;28;20118;-47
2021/08/19 12:31:02;;;;;;;5.07;1.90;;;;;;;;;;4972918;28;20053;-49
2021/08/19 12:33:34;;;;;;;4.65;1.85;;;;;;;;;;4973210;28;20043;-47
2021/08/19 12:36:10;;;;;;;2.88;1.63;;;;;;;;;;4973230;28;20043;-48
2021/08/19 12:38:38;;;;;;;2.33;1.38;;;;;;;;;;4973094;28;20119;-48
2021/08/19 12:41:12;;;;;;;2.95;1.75;;;;;;;;;;4972966;28;20061;-48
2021/08/19 12:43:39;;;;;;;3.22;1.98;;;;;;;;;;4974195;28;20043;-53
2021/08/19 12:46:07;;;;;;;3.00;1.67;;;;;;;;;;4973893;28;20106;-50
2021/08/19 12:48:35;;;;;;;2.13;1.63;;;;;;;;;;4973502;28;20046;-50
2021/08/19 12:51:24;;;;;;;3.25;2.00;;;;;;;;;;4973573;28;20051;-52
2021/08/19 12:54:22;;;;;;;2.50;1.42;;;;;;;;;;4973323;28;20263;-48
2021/08/19 12:56:59;;;;;;;3.45;1.83;;;;;;;;;;4981236;28;20046;-52
2021/08/19 12:59:25;;;;;;;3.90;1.98;;;;;;;;;;4992267;28;20488;-49
2021/08/19 13:01:52;;;;;;;2.08;1.48;;;;;;;;;;4992333;28;20042;-49
2021/08/19 13:04:19;;;;;;;3.28;1.70;;;;;;;;;;4984519;28;20046;-49
2021/08/19 13:06:46;;;;;;;2.88;1.85;;;;;;;;;;4972578;28;20408;-47
2021/08/19 13:09:12;;;;;;;2.28;1.70;;;;;;;;;;4982485;28;20085;-49
2021/08/19 13:11:39;;;;;;;2.90;1.70;;;;;;;;;;4993583;28;20129;-48
2021/08/19 13:14:06;;;;;;;2.28;1.58;;;;;;;;;;4992860;28;20039;-49
2021/08/19 13:16:33;;;;;;;2.83;1.50;;;;;;;;;;4989220;28;20054;-50
2021/08/19 13:18:59;;;;;;;2.53;1.50;;;;;;;;;;4973548;28;20315;-50
2021/08/19 13:21:26;;;;;;;3.00;1.80;;;;;;;;;;4972491;28;20035;-49
2021/08/19 13:23:56;;;;;;;4.18;1.80;;;;;;;;;;4972561;28;20039;-51
2021/08/19 13:26:23;;;;;;;2.22;1.63;;;;;;;;;;4972904;28;20072;-48
2021/08/19 13:28:49;;;;;;;2.70;1.80;;;;;;;;;;4972739;28;20420;-47
2021/08/19 13:31:16;;;;;;;2.33;1.60;;;;;;;;;;4972697;28;20038;-53
2021/08/19 13:33:43;;;;;;;3.92;1.73;;;;;;;;;;4976419;28;20133;-49
2021/08/19 13:36:10;;;;;;;7.25;1.80;;;;;;;;;;4991600;28;20045;-50
2021/08/19 13:38:36;;;;;;;2.65;1.73;;;;;;;;;;4986085;28;20041;-49
2021/08/19 13:41:03;;;;;;;4.72;1.80;;;;;;;;;;4972228;28;20129;-47
2021/08/19 13:43:30;;;;;;;3.35;2.00;;;;;;;;;;4973294;28;20043;-51
2021/08/19 13:45:58;;;;;;;3.00;1.95;;;;;;;;;;4973320;28;20051;-54
2021/08/19 13:48:25;;;;;;;3.05;1.85;;;;;;;;;;4989141;28;20121;-50
2021/08/19 13:50:51;;;;;;;2.90;2.08;;;;;;;;;;4993962;28;20042;-53
2021/08/19 13:53:20;;;;;;;3.80;2.13;;;;;;;;;;4995935;28;20416;-49
2021/08/19 13:55:47;;;;;;;4.40;1.90;;;;;;;;;;4989489;28;20043;-52
2021/08/19 13:58:14;;;;;;;3.38;1.77;;;;;;;;;;4975150;28;20049;-49
2021/08/19 14:00:41;;;;;;;2.47;1.70;;;;;;;;;;4976258;28;20046;-50
2021/08/19 14:03:08;;;;;;;4.65;2.05;;;;;;;;;;4975069;28;20097;-50
2021/08/19 14:05:34;;;;;;;3.78;1.90;;;;;;;;;;4974825;28;20366;-50
2021/08/19 14:08:01;;;;;;;2.72;1.80;;;;;;;;;;4975628;28;20050;-49
2021/08/19 14:10:29;;;;;;;2.72;1.90;;;;;;;;;;4975549;28;20102;-52
2021/08/19 14:13:15;;;;;;;2.85;1.83;;;;;;;;;;4975736;28;20041;-49
2021/08/19 14:15:42;;;;;;;3.72;2.00;;;;;;;;;;4974745;28;20038;-51
2021/08/19 14:18:09;;;;;;;3.67;1.95;;;;;;;;;;4975594;28;20039;-53
2021/08/19 14:20:36;;;;;;;2.92;2.00;;;;;;;;;;4975532;28;20047;-49
2021/08/19 14:23:02;;;;;;;4.20;2.00;;;;;;;;;;4975210;28;20051;-51
2021/08/19 14:25:29;;;;;;;3.15;1.80;;;;;;;;;;4975367;28;20125;-51
2021/08/19 14:27:56;;;;;;;3.78;1.98;;;;;;;;;;4986099;28;20100;-50
2021/08/19 14:30:23;;;;;;;3.45;1.80;;;;;;;;;;4994943;28;20079;-50
2021/08/19 14:32:49;;;;;;;4.03;2.03;;;;;;;;;;4994461;28;20049;-51
2021/08/19 14:35:16;;;;;;;3.42;1.98;;;;;;;;;;4993519;28;20048;-49
2021/08/19 14:37:43;;;;;;;3.25;2.03;;;;;;;;;;4979682;28;20058;-53
2021/08/19 14:40:10;;;;;;;4.25;1.85;;;;;;;;;;4974356;28;20055;-51
2021/08/19 14:42:37;;;;;;;3.63;1.77;;;;;;;;;;4974396;28;20148;-51
2021/08/19 14:45:04;;;;;;;2.92;1.75;;;;;;;;;;4972772;28;20047;-50
2021/08/19 14:47:31;;;;;;;3.00;1.88;;;;;;;;;;4974367;28;20057;-48
2021/08/19 14:49:57;;;;;;;3.90;2.60;;;;;;;;;;4974020;28;20492;-50